Terminal Aerodrome Forecast
Issued by NWS Newport/Morehead City, NC

Home | Current Version | Previous Version | Text Only | Print | Product List | Glossary Off
Versions: 1 2 3 4 5 6 7 8 9 10 11 12 13 14 15 16 17 18

000
FTUS42 KMHX 220704 AAA
TAFEWN
TAF AMD
KEWN 220704Z 2207/2306 00000KT 1SM BR SKC
     FM220900 VRB03KT 5SM BR BKN250
     FM221200 VRB03KT P6SM BKN250
     FM221600 14006KT P6SM SCT040=

USA.gov is the U.S. government's official web portal to all federal, state and local government web resources and services.